createdAt,value
2022-08-05T00:01:20.293Z,15.44
2022-08-05T00:02:08.011Z,15.44
2022-08-05T00:02:58.379Z,15.50
2022-08-05T00:03:57.513Z,15.50
2022-08-05T00:04:57.200Z,15.44
2022-08-05T00:06:06.701Z,15.50
2022-08-05T00:06:58.204Z,15.50
2022-08-05T00:07:59.663Z,15.55
2022-08-05T00:08:57.153Z,15.50
2022-08-05T00:09:57.135Z,15.50
2022-08-05T00:10:57.128Z,15.55
2022-08-05T00:11:59.980Z,15.55
2022-08-05T00:12:57.131Z,15.55
2022-08-05T00:13:57.086Z,15.55
2022-08-05T00:14:57.075Z,15.50
2022-08-05T00:15:58.128Z,15.50
2022-08-05T00:16:57.051Z,15.50
2022-08-05T00:17:57.034Z,15.44
2022-08-05T00:18:57.024Z,15.55
2022-08-05T00:20:01.903Z,15.55
2022-08-05T00:20:56.998Z,15.55
2022-08-05T00:21:56.983Z,15.55
2022-08-05T00:22:59.579Z,15.55
2022-08-05T00:24:10.296Z,15.50
2022-08-05T00:24:57.981Z,15.44
2022-08-05T00:25:56.934Z,15.50
2022-08-05T00:26:57.050Z,15.61
2022-08-05T00:27:56.909Z,15.55
2022-08-05T00:28:56.896Z,15.50
2022-08-05T00:29:56.883Z,15.55
2022-08-05T00:30:56.870Z,15.50
2022-08-05T00:32:12.651Z,15.55
2022-08-05T00:32:57.880Z,15.39
2022-08-05T00:34:53.628Z,15.44
2022-08-05T00:35:06.575Z,15.50
2022-08-05T00:36:15.028Z,15.44
2022-08-05T00:37:10.691Z,15.50
2022-08-05T00:37:57.811Z,15.50
2022-08-05T00:38:56.800Z,15.50
2022-08-05T00:39:58.340Z,15.55
2022-08-05T00:40:56.743Z,15.44
2022-08-05T00:41:56.733Z,15.50
2022-08-05T00:42:56.733Z,15.55
2022-08-05T00:43:56.706Z,15.55
2022-08-05T00:44:56.695Z,15.50
2022-08-05T00:45:56.684Z,15.55
2022-08-05T00:47:04.165Z,15.61
2022-08-05T00:48:05.684Z,15.50
2022-08-05T00:48:57.673Z,15.55
2022-08-05T00:49:56.634Z,15.66
2022-08-05T00:50:56.618Z,15.50
2022-08-05T00:51:56.607Z,15.55
2022-08-05T00:52:56.593Z,15.44
2022-08-05T00:54:02.578Z,15.44
2022-08-05T00:54:57.599Z,15.50
2022-08-05T00:55:56.551Z,15.61
2022-08-05T00:56:56.545Z,15.50
2022-08-05T00:57:59.097Z,15.44
2022-08-05T00:58:56.519Z,15.44
2022-08-05T00:59:56.505Z,15.50
2022-08-05T01:00:56.640Z,15.55
2022-08-05T01:01:56.580Z,15.55
2022-08-05T01:02:56.466Z,15.61
2022-08-05T01:03:56.453Z,15.44
2022-08-05T01:04:56.441Z,15.50
2022-08-05T01:05:56.430Z,15.44
2022-08-05T01:06:56.414Z,15.50
2022-08-05T01:08:42.369Z,15.55
2022-08-05T01:08:57.419Z,15.55
2022-08-05T01:09:56.376Z,15.50
2022-08-05T01:10:56.377Z,15.55
2022-08-05T01:11:56.353Z,15.44
2022-08-05T01:13:12.916Z,15.44
2022-08-05T01:13:59.612Z,15.55
2022-08-05T01:14:56.313Z,15.55
2022-08-05T01:15:56.301Z,15.50
2022-08-05T01:16:56.291Z,15.50
2022-08-05T01:17:56.275Z,15.44
2022-08-05T01:18:56.754Z,15.44
2022-08-05T01:20:01.683Z,15.55
2022-08-05T01:20:57.268Z,15.61
2022-08-05T01:21:56.224Z,15.55
2022-08-05T01:22:57.198Z,15.50
2022-08-05T01:23:56.200Z,15.71
2022-08-05T01:24:56.187Z,15.61
2022-08-05T01:25:56.178Z,15.55
2022-08-05T01:26:56.163Z,15.55
2022-08-05T01:27:56.147Z,15.44
2022-08-05T01:28:56.138Z,15.50
2022-08-05T01:29:56.127Z,15.50
2022-08-05T01:30:56.117Z,15.44
2022-08-05T01:31:56.107Z,15.50
2022-08-05T01:32:56.088Z,15.39
2022-08-05T01:33:56.079Z,15.55
2022-08-05T01:34:56.062Z,15.55
2022-08-05T01:35:57.455Z,15.50
2022-08-05T01:36:56.036Z,15.50
2022-08-05T01:37:56.024Z,15.66
2022-08-05T01:38:56.047Z,15.55
2022-08-05T01:39:59.215Z,15.44
2022-08-05T01:40:55.987Z,15.50
2022-08-05T01:41:55.978Z,15.44
2022-08-05T01:42:55.969Z,15.55
2022-08-05T01:43:55.949Z,15.50
2022-08-05T01:44:55.941Z,15.44
2022-08-05T01:45:56.473Z,15.50
2022-08-05T01:46:55.911Z,15.44
2022-08-05T01:47:55.901Z,15.50
2022-08-05T01:48:55.891Z,15.55
2022-08-05T01:50:02.227Z,15.55
2022-08-05T01:50:56.894Z,15.55
2022-08-05T01:51:55.853Z,15.55
2022-08-05T01:52:55.837Z,15.50
2022-08-05T01:53:58.853Z,15.55
2022-08-05T01:54:55.833Z,15.55
2022-08-05T01:55:55.799Z,15.50
2022-08-05T01:58:11.439Z,15.50
2022-08-05T01:58:13.738Z,15.50
2022-08-05T01:58:56.793Z,15.61
2022-08-05T01:59:55.748Z,15.44
2022-08-05T02:00:55.735Z,15.50
2022-08-05T02:01:55.770Z,15.50
2022-08-05T02:02:55.716Z,15.50
2022-08-05T02:03:55.717Z,15.50
2022-08-05T02:04:55.683Z,15.55
2022-08-05T02:05:59.758Z,15.50
2022-08-05T02:06:55.661Z,15.44
2022-08-05T02:07:59.968Z,15.50
2022-08-05T02:08:58.327Z,15.55
2022-08-05T02:09:55.623Z,15.55
2022-08-05T02:10:55.608Z,15.50
2022-08-05T02:11:55.596Z,15.50
2022-08-05T02:12:55.585Z,15.44
2022-08-05T02:13:55.574Z,15.55
2022-08-05T02:14:55.561Z,15.55
2022-08-05T02:15:55.557Z,15.44
2022-08-05T02:16:55.536Z,15.50
2022-08-05T02:18:30.717Z,15.55
2022-08-05T02:18:56.551Z,15.50
2022-08-05T02:19:55.498Z,15.44
2022-08-05T02:20:55.486Z,15.44
2022-08-05T02:21:55.471Z,15.55
2022-08-05T02:22:55.458Z,15.44
2022-08-05T02:23:55.445Z,15.55
2022-08-05T02:24:55.435Z,15.50
2022-08-05T02:25:55.422Z,15.50
2022-08-05T02:26:55.407Z,15.61
2022-08-05T02:27:59.080Z,15.50
2022-08-05T02:28:55.381Z,15.61
2022-08-05T02:29:59.556Z,15.50
2022-08-05T02:30:56.715Z,15.44
2022-08-05T02:31:55.346Z,15.44
2022-08-05T02:32:55.333Z,15.61
2022-08-05T02:33:57.847Z,15.55
2022-08-05T02:34:55.321Z,15.50
2022-08-05T02:35:58.992Z,15.50
2022-08-05T02:36:55.282Z,15.50
2022-08-05T02:37:55.268Z,15.44
2022-08-05T02:38:55.311Z,15.50
2022-08-05T02:39:55.371Z,15.44
2022-08-05T02:40:55.231Z,15.50
2022-08-05T02:42:00.797Z,15.55
2022-08-05T02:42:56.250Z,15.44
2022-08-05T02:44:02.557Z,15.55
2022-08-05T02:44:56.211Z,15.55
2022-08-05T02:45:55.170Z,15.55
2022-08-05T02:47:00.621Z,15.44
2022-08-05T02:48:07.058Z,15.50
2022-08-05T02:48:56.164Z,15.50
2022-08-05T02:49:55.126Z,15.55
2022-08-05T02:50:55.108Z,15.55
2022-08-05T02:52:02.736Z,15.44
2022-08-05T02:52:56.112Z,15.44
2022-08-05T02:53:55.070Z,15.50
2022-08-05T02:54:56.083Z,15.50
2022-08-05T02:55:59.820Z,15.55
2022-08-05T02:56:55.035Z,15.50
2022-08-05T02:58:20.365Z,15.50
2022-08-05T02:58:56.036Z,15.66
2022-08-05T02:59:55.005Z,15.61
2022-08-05T03:00:55.000Z,15.50
2022-08-05T03:01:55.011Z,15.55
2022-08-05T03:02:54.953Z,15.50
2022-08-05T03:04:04.291Z,15.50
2022-08-05T03:04:55.963Z,15.39
2022-08-05T03:06:56.561Z,15.28
2022-08-05T03:06:59.271Z,15.50
2022-08-05T03:08:07.005Z,15.50
2022-08-05T03:08:55.913Z,15.50
2022-08-05T03:09:54.869Z,15.50
2022-08-05T03:11:53.554Z,15.55
2022-08-05T03:11:58.194Z,15.50
2022-08-05T03:12:55.034Z,15.23
2022-08-05T03:14:03.225Z,15.55
2022-08-05T03:14:55.836Z,15.50
2022-08-05T03:15:54.796Z,15.55
2022-08-05T03:16:54.783Z,15.55
2022-08-05T03:17:55.776Z,15.55
2022-08-05T03:18:54.758Z,15.44
2022-08-05T03:19:54.746Z,15.55
2022-08-05T03:20:54.732Z,15.50
2022-08-05T03:21:54.719Z,15.55
2022-08-05T03:22:57.164Z,15.50
2022-08-05T03:23:54.697Z,15.55
2022-08-05T03:24:54.684Z,15.50
2022-08-05T03:26:05.035Z,15.55
2022-08-05T03:26:55.689Z,15.50
2022-08-05T03:27:59.549Z,15.44
2022-08-05T03:28:54.634Z,15.50
2022-08-05T03:30:08.264Z,15.50
2022-08-05T03:30:55.637Z,15.28
2022-08-05T03:31:56.476Z,15.44
2022-08-05T03:32:54.581Z,15.55
2022-08-05T03:33:54.572Z,15.50
2022-08-05T03:34:54.556Z,15.50
2022-08-05T03:35:54.546Z,15.50
2022-08-05T03:36:54.534Z,15.50
2022-08-05T03:37:54.522Z,15.55
2022-08-05T03:38:54.629Z,15.55
2022-08-05T03:39:59.278Z,15.44
2022-08-05T03:40:55.609Z,15.34
2022-08-05T03:41:56.231Z,15.50
2022-08-05T03:42:54.457Z,15.55
2022-08-05T03:44:09.203Z,15.55
2022-08-05T03:44:55.466Z,15.50
2022-08-05T03:45:57.910Z,15.50
2022-08-05T03:46:54.409Z,15.50
2022-08-05T03:47:56.822Z,15.50
2022-08-05T03:48:54.384Z,15.44
2022-08-05T03:49:54.371Z,15.50
2022-08-05T03:50:54.362Z,15.44
2022-08-05T03:52:50.548Z,15.50
2022-08-05T03:55:50.143Z,15.44
2022-08-05T03:55:53.870Z,15.28
2022-08-05T03:56:01.057Z,15.61
2022-08-05T03:56:10.197Z,15.55
2022-08-05T03:56:55.316Z,15.55
2022-08-05T03:57:54.272Z,15.55
2022-08-05T03:58:54.259Z,15.55
2022-08-05T03:59:54.834Z,15.50
2022-08-05T04:00:54.235Z,15.55
2022-08-05T04:01:54.295Z,15.50
2022-08-05T04:02:58.451Z,15.50
2022-08-05T04:04:09.996Z,15.44
2022-08-05T04:04:55.215Z,15.34
2022-08-05T04:05:54.169Z,15.50
2022-08-05T04:06:54.165Z,15.50
2022-08-05T04:07:57.854Z,15.50
2022-08-05T04:08:54.135Z,15.66
2022-08-05T04:09:54.124Z,15.55
2022-08-05T04:10:54.110Z,15.50
2022-08-05T04:11:54.097Z,15.55
2022-08-05T04:12:54.085Z,15.50
2022-08-05T04:13:54.075Z,15.55
2022-08-05T04:14:54.058Z,15.55
2022-08-05T04:16:04.765Z,15.44
2022-08-05T04:16:55.066Z,15.50
2022-08-05T04:17:57.197Z,15.28
2022-08-05T04:18:54.757Z,15.55
2022-08-05T04:19:54.458Z,15.50
2022-08-05T04:20:53.985Z,15.50
2022-08-05T04:22:09.624Z,15.55
2022-08-05T04:22:54.995Z,15.55
2022-08-05T04:24:05.256Z,15.50
2022-08-05T04:24:54.964Z,15.50
2022-08-05T04:25:57.900Z,15.55
2022-08-05T04:26:54.942Z,15.50
2022-08-05T04:27:57.309Z,15.50
2022-08-05T04:28:53.884Z,15.55
2022-08-05T04:29:53.876Z,15.50
2022-08-05T04:30:53.863Z,15.55
2022-08-05T04:31:53.848Z,15.55
2022-08-05T04:32:53.833Z,15.55
2022-08-05T04:34:17.483Z,15.50
2022-08-05T04:34:57.619Z,15.55
2022-08-05T04:36:16.103Z,15.55
2022-08-05T04:36:54.826Z,15.55
2022-08-05T04:38:00.856Z,15.55
2022-08-05T04:38:54.844Z,15.61
2022-08-05T04:39:55.694Z,15.55
2022-08-05T04:40:53.737Z,15.50
2022-08-05T04:41:53.724Z,15.61
2022-08-05T04:42:53.709Z,15.44
2022-08-05T04:43:53.700Z,15.44
2022-08-05T04:44:53.687Z,15.50
2022-08-05T04:45:54.938Z,15.61
2022-08-05T04:46:53.661Z,15.50
2022-08-05T04:47:53.649Z,15.50
2022-08-05T04:48:53.642Z,15.61
2022-08-05T04:50:06.539Z,15.50
2022-08-05T04:51:02.035Z,15.61
2022-08-05T04:52:00.487Z,15.55
2022-08-05T04:52:54.616Z,15.55
2022-08-05T04:53:53.575Z,15.50
2022-08-05T04:54:53.563Z,15.50
2022-08-05T04:56:33.742Z,15.50
2022-08-05T04:56:58.920Z,15.50
2022-08-05T04:57:54.144Z,15.55
2022-08-05T04:58:53.518Z,15.50
2022-08-05T04:59:53.496Z,15.61
2022-08-05T05:00:53.515Z,15.50
2022-08-05T05:02:35.492Z,15.50
2022-08-05T05:02:54.636Z,15.50
2022-08-05T05:03:53.452Z,15.44
2022-08-05T05:05:02.210Z,15.44
2022-08-05T05:06:39.034Z,15.44
2022-08-05T05:06:57.560Z,15.44
2022-08-05T05:07:56.479Z,15.50
2022-08-05T05:08:54.417Z,15.50
2022-08-05T05:09:53.373Z,15.50
2022-08-05T05:10:56.369Z,15.50
2022-08-05T05:11:57.821Z,15.50
2022-08-05T05:12:54.365Z,15.55
2022-08-05T05:13:53.324Z,15.55
2022-08-05T05:14:53.311Z,15.50
2022-08-05T05:15:57.488Z,15.50
2022-08-05T05:16:54.502Z,15.50
2022-08-05T05:17:56.658Z,15.34
2022-08-05T05:19:17.566Z,15.50
2022-08-05T05:19:54.278Z,15.50
2022-08-05T05:20:53.238Z,15.55
2022-08-05T05:21:55.579Z,15.61
2022-08-05T05:22:53.212Z,15.50
2022-08-05T05:24:03.895Z,15.44
2022-08-05T05:24:57.731Z,15.28
2022-08-05T05:25:53.174Z,15.55
2022-08-05T05:26:53.168Z,15.44
2022-08-05T05:27:54.033Z,15.50
2022-08-05T05:28:53.138Z,15.28
2022-08-05T05:30:04.008Z,15.55
2022-08-05T05:30:54.142Z,15.50
2022-08-05T05:31:53.098Z,15.55
2022-08-05T05:32:53.092Z,15.50
2022-08-05T05:33:59.236Z,15.55
2022-08-05T05:34:54.099Z,15.50
2022-08-05T05:35:53.047Z,15.44
2022-08-05T05:36:53.039Z,15.50
2022-08-05T05:38:00.285Z,15.50
2022-08-05T05:38:54.096Z,15.50
2022-08-05T05:39:53.030Z,15.55
2022-08-05T05:40:52.990Z,15.50
2022-08-05T05:41:54.052Z,15.50
2022-08-05T05:42:52.964Z,15.55
2022-08-05T05:43:58.571Z,15.55
2022-08-05T05:44:53.971Z,15.44
2022-08-05T05:45:52.926Z,15.55
2022-08-05T05:46:52.912Z,15.50
2022-08-05T05:48:06.224Z,15.23
2022-08-05T05:48:53.923Z,15.44
2022-08-05T05:49:56.839Z,15.50
2022-08-05T05:50:53.891Z,15.50
2022-08-05T05:51:53.519Z,15.50
2022-08-05T05:52:52.839Z,15.44
2022-08-05T05:53:58.545Z,15.34
2022-08-05T05:54:53.846Z,15.55
2022-08-05T05:56:00.989Z,15.50
2022-08-05T05:56:53.818Z,15.55
2022-08-05T05:57:53.236Z,15.44
2022-08-05T05:58:52.767Z,15.44
2022-08-05T05:59:52.882Z,15.50
2022-08-05T06:00:52.738Z,15.34
2022-08-05T06:01:57.756Z,15.55
2022-08-05T06:02:52.711Z,15.44
2022-08-05T06:04:00.700Z,15.55
2022-08-05T06:04:53.777Z,15.61
2022-08-05T06:05:54.139Z,15.55
2022-08-05T06:06:52.672Z,15.44
2022-08-05T06:08:01.397Z,15.50
2022-08-05T06:08:53.675Z,15.50
2022-08-05T06:10:04.364Z,15.55
2022-08-05T06:10:53.655Z,15.39
2022-08-05T06:11:59.280Z,15.50
2022-08-05T06:12:53.614Z,15.50
2022-08-05T06:13:54.214Z,15.34
2022-08-05T06:14:52.564Z,15.55
2022-08-05T06:16:28.474Z,15.50
2022-08-05T06:16:53.570Z,15.50
2022-08-05T06:17:54.529Z,15.55
2022-08-05T06:18:53.636Z,15.50
2022-08-05T06:19:59.043Z,15.34
2022-08-05T06:20:54.159Z,15.55
2022-08-05T06:21:52.476Z,15.55
2022-08-05T06:22:52.463Z,15.28
2022-08-05T06:23:52.451Z,15.50
2022-08-05T06:24:52.441Z,15.50
2022-08-05T06:26:12.566Z,15.44
2022-08-05T06:26:53.450Z,15.55
2022-08-05T06:28:10.624Z,15.50
2022-08-05T06:28:53.419Z,15.50
2022-08-05T06:30:04.267Z,15.44
2022-08-05T06:30:53.396Z,15.55
2022-08-05T06:31:52.360Z,15.50
2022-08-05T06:32:52.346Z,15.44
2022-08-05T06:34:07.675Z,15.55
2022-08-05T06:34:54.102Z,15.44
2022-08-05T06:36:07.160Z,15.50
2022-08-05T06:36:57.566Z,15.50
2022-08-05T06:37:57.651Z,15.39
2022-08-05T06:38:53.402Z,15.44
2022-08-05T06:39:52.245Z,15.44
2022-08-05T06:40:52.236Z,15.23
2022-08-05T06:41:52.232Z,15.50
2022-08-05T06:42:52.833Z,15.50
2022-08-05T06:43:57.714Z,15.61
2022-08-05T06:44:53.219Z,15.50
2022-08-05T06:46:06.661Z,15.34
2022-08-05T06:46:54.294Z,15.50
2022-08-05T06:48:37.015Z,15.28
2022-08-05T06:48:56.753Z,15.44
2022-08-05T06:50:01.185Z,15.28
2022-08-05T06:50:53.145Z,15.50
2022-08-05T06:51:52.090Z,15.50
2022-08-05T06:52:58.602Z,15.39
2022-08-05T06:53:53.653Z,15.39
2022-08-05T06:54:52.176Z,15.28
2022-08-05T06:55:52.051Z,15.50
2022-08-05T06:56:54.376Z,15.50
2022-08-05T06:58:03.547Z,15.50
2022-08-05T06:58:53.044Z,15.39
2022-08-05T06:59:56.478Z,15.39
2022-08-05T07:00:53.091Z,15.44
2022-08-05T07:01:53.023Z,15.39
2022-08-05T07:02:53.595Z,15.28
2022-08-05T07:03:51.946Z,15.50
2022-08-05T07:04:51.957Z,15.34
2022-08-05T07:05:51.921Z,15.39
2022-08-05T07:06:51.913Z,15.50
2022-08-05T07:07:51.898Z,15.28
2022-08-05T07:08:54.951Z,15.28
2022-08-05T07:09:55.544Z,15.34
2022-08-05T07:10:53.944Z,15.34
2022-08-05T07:11:51.933Z,15.44
2022-08-05T07:12:51.838Z,15.28
2022-08-05T07:13:59.522Z,15.44
2022-08-05T07:14:53.947Z,15.50
2022-08-05T07:16:01.057Z,15.28
2022-08-05T07:17:56.523Z,15.50
2022-08-05T07:18:01.694Z,15.55
2022-08-05T07:18:52.791Z,15.50
2022-08-05T07:20:51.737Z,15.28
2022-08-05T07:22:00.547Z,15.55
2022-08-05T07:22:52.746Z,15.34
2022-08-05T07:23:52.276Z,15.28
2022-08-05T07:24:52.435Z,15.34
2022-08-05T07:25:56.357Z,15.50
2022-08-05T07:26:51.657Z,15.28
2022-08-05T07:27:57.421Z,15.34
2022-08-05T07:28:52.663Z,15.50
2022-08-05T07:30:24.591Z,15.39
2022-08-05T07:30:54.849Z,15.34
2022-08-05T07:31:54.769Z,15.28
2022-08-05T07:32:53.384Z,15.34
2022-08-05T07:33:51.570Z,15.39
2022-08-05T07:34:51.560Z,15.50
2022-08-05T07:36:02.940Z,15.34
2022-08-05T07:36:52.563Z,15.01
2022-08-05T07:37:51.519Z,15.28
2022-08-05T07:38:54.674Z,15.34
2022-08-05T07:40:26.970Z,14.96
2022-08-05T07:40:55.685Z,15.34
2022-08-05T07:42:13.011Z,15.28
2022-08-05T07:42:52.496Z,15.28
2022-08-05T07:43:51.466Z,15.28
2022-08-05T07:44:51.437Z,15.34
2022-08-05T07:45:57.040Z,15.28
2022-08-05T07:46:52.467Z,15.28
2022-08-05T07:47:51.402Z,14.90
2022-08-05T07:49:02.655Z,15.23
2022-08-05T07:49:54.638Z,15.34
2022-08-05T07:50:51.363Z,14.90
2022-08-05T07:51:54.620Z,15.01
2022-08-05T07:52:51.343Z,15.34
2022-08-05T07:53:51.804Z,15.50
2022-08-05T07:54:51.309Z,15.34
2022-08-05T07:56:06.232Z,15.23
2022-08-05T07:57:02.057Z,15.28
2022-08-05T07:58:02.399Z,14.90
2022-08-05T07:58:57.636Z,14.90
2022-08-05T07:59:52.339Z,15.28
2022-08-05T08:00:51.290Z,14.90
2022-08-05T08:01:52.139Z,15.01
2022-08-05T08:03:14.654Z,15.55
2022-08-05T08:03:52.224Z,14.90
2022-08-05T08:04:51.182Z,15.28
2022-08-05T08:05:51.176Z,14.90
2022-08-05T08:06:51.273Z,15.07
2022-08-05T08:07:59.887Z,15.34
2022-08-05T08:08:52.164Z,15.28
2022-08-05T08:09:52.316Z,14.90
2022-08-05T08:10:51.105Z,14.96
2022-08-05T08:12:00.175Z,14.96
2022-08-05T08:12:52.102Z,14.90
2022-08-05T08:14:00.780Z,15.01
2022-08-05T08:14:52.084Z,15.01
2022-08-05T08:16:35.200Z,14.90
2022-08-05T08:16:52.061Z,14.90
2022-08-05T08:17:52.866Z,14.90
2022-08-05T08:18:51.009Z,14.90
2022-08-05T08:20:22.497Z,14.90
2022-08-05T08:21:02.265Z,14.90
2022-08-05T08:21:51.997Z,15.34
2022-08-05T08:22:50.956Z,14.96
2022-08-05T08:24:01.653Z,14.90
2022-08-05T08:24:52.221Z,14.90
2022-08-05T08:26:00.721Z,14.96
2022-08-05T08:26:52.420Z,15.50
2022-08-05T08:27:51.293Z,14.90
2022-08-05T08:29:02.053Z,14.96
2022-08-05T08:30:06.038Z,15.34
2022-08-05T08:30:51.896Z,15.44
2022-08-05T08:31:50.867Z,14.96
2022-08-05T08:32:51.149Z,14.96
2022-08-05T08:33:51.735Z,14.96
2022-08-05T08:34:50.806Z,14.96
2022-08-05T08:35:53.066Z,14.96
2022-08-05T08:36:55.821Z,14.96
2022-08-05T08:37:51.856Z,14.96
2022-08-05T08:38:53.201Z,14.96
2022-08-05T08:39:50.781Z,14.96
2022-08-05T08:40:51.624Z,14.96
2022-08-05T08:41:59.618Z,14.96
2022-08-05T08:42:52.574Z,14.96
2022-08-05T08:45:16.608Z,14.85
2022-08-05T08:45:19.238Z,14.90
2022-08-05T08:45:51.696Z,14.90
2022-08-05T08:46:50.659Z,14.90
2022-08-05T08:48:10.610Z,14.90
2022-08-05T08:49:07.823Z,14.96
2022-08-05T08:50:05.747Z,14.90
2022-08-05T08:51:03.815Z,14.90
2022-08-05T08:52:06.170Z,14.90
2022-08-05T08:52:53.131Z,14.90
2022-08-05T08:53:50.569Z,15.07
2022-08-05T08:54:50.552Z,14.90
2022-08-05T08:56:03.116Z,14.96
2022-08-05T08:56:51.557Z,14.96
2022-08-05T08:57:58.460Z,14.96
2022-08-05T08:58:51.539Z,14.96
2022-08-05T08:59:50.491Z,15.28
2022-08-05T09:00:50.567Z,15.34
2022-08-05T09:01:57.445Z,15.01
2022-08-05T09:02:51.483Z,14.90
2022-08-05T09:03:54.283Z,14.90
2022-08-05T09:05:16.443Z,14.96
2022-08-05T09:06:07.362Z,14.85
2022-08-05T09:06:51.432Z,14.96
2022-08-05T09:07:58.037Z,14.85
2022-08-05T09:08:51.415Z,14.96
2022-08-05T09:09:50.365Z,14.90
2022-08-05T09:10:50.355Z,14.90
2022-08-05T09:11:52.572Z,14.90
2022-08-05T09:12:51.025Z,14.96
2022-08-05T09:14:10.344Z,15.01
2022-08-05T09:14:58.095Z,14.96
2022-08-05T09:15:51.317Z,14.96
2022-08-05T09:16:50.273Z,14.96
2022-08-05T09:17:50.262Z,15.28
2022-08-05T09:18:50.255Z,14.90
2022-08-05T09:20:01.333Z,14.96
2022-08-05T09:20:51.259Z,14.90
2022-08-05T09:22:31.285Z,14.90
2022-08-05T09:22:51.950Z,14.96
2022-08-05T09:23:50.190Z,14.90
2022-08-05T09:24:50.190Z,14.90
2022-08-05T09:26:01.346Z,14.90
2022-08-05T09:26:51.715Z,14.96
2022-08-05T09:28:04.170Z,14.90
2022-08-05T09:28:51.162Z,14.96
2022-08-05T09:29:50.119Z,14.96
2022-08-05T09:30:50.112Z,15.01
2022-08-05T09:32:45.924Z,14.90
2022-08-05T09:32:52.986Z,14.96
2022-08-05T09:33:50.876Z,14.90
2022-08-05T09:34:50.061Z,14.85
2022-08-05T09:35:50.041Z,14.90
2022-08-05T09:36:54.847Z,14.96
2022-08-05T09:38:16.303Z,14.96
2022-08-05T09:38:51.035Z,15.01
2022-08-05T09:39:52.332Z,14.90
2022-08-05T09:40:53.750Z,14.90
2022-08-05T09:41:56.144Z,14.90
2022-08-05T09:42:50.991Z,14.96
2022-08-05T09:43:49.943Z,15.01
2022-08-05T09:44:50.673Z,14.90
2022-08-05T09:46:07.453Z,14.90
2022-08-05T09:46:53.625Z,14.90
2022-08-05T09:47:55.958Z,14.90
2022-08-05T09:49:07.002Z,14.90
2022-08-05T09:50:00.681Z,14.90
2022-08-05T09:50:50.877Z,14.85
2022-08-05T09:51:50.411Z,15.34
2022-08-05T09:52:53.005Z,15.01
2022-08-05T09:53:54.646Z,14.85
2022-08-05T09:54:50.843Z,14.96
2022-08-05T09:55:58.188Z,14.90
2022-08-05T09:56:52.280Z,15.01
2022-08-05T09:57:49.773Z,14.90
2022-08-05T09:58:50.241Z,14.96
2022-08-05T09:59:49.750Z,14.90
2022-08-05T10:00:49.739Z,15.01
2022-08-05T10:01:58.075Z,14.96
2022-08-05T10:02:50.793Z,14.90
2022-08-05T10:03:58.683Z,14.90
2022-08-05T10:04:50.724Z,14.96
2022-08-05T10:05:49.681Z,14.74
2022-08-05T10:06:55.122Z,14.90
2022-08-05T10:08:11.196Z,14.90
2022-08-05T10:08:54.009Z,14.96
2022-08-05T10:09:49.633Z,14.96
2022-08-05T10:10:54.454Z,14.90
2022-08-05T10:11:49.613Z,14.90
2022-08-05T10:12:50.475Z,14.74
2022-08-05T10:13:49.586Z,14.90
2022-08-05T10:14:49.568Z,14.96
2022-08-05T10:15:49.563Z,14.74
2022-08-05T10:16:52.836Z,15.01
2022-08-05T10:17:56.761Z,14.96
2022-08-05T10:18:50.554Z,14.90
2022-08-05T10:20:04.163Z,14.96
2022-08-05T10:20:50.537Z,15.01
2022-08-05T10:21:49.491Z,14.96
2022-08-05T10:22:50.865Z,14.90
2022-08-05T10:23:59.096Z,14.69
2022-08-05T10:24:50.630Z,14.80
2022-08-05T10:25:49.443Z,14.96
2022-08-05T10:26:52.335Z,14.85
2022-08-05T10:28:13.937Z,14.96
2022-08-05T10:28:50.636Z,14.69
2022-08-05T10:30:06.335Z,14.69
2022-08-05T10:32:52.385Z,14.74
2022-08-05T10:32:52.430Z,14.96
2022-08-05T10:33:01.641Z,14.90
2022-08-05T10:33:52.363Z,15.01
2022-08-05T10:34:49.335Z,14.80
2022-08-05T10:35:59.012Z,14.69
2022-08-05T10:36:50.343Z,14.85
2022-08-05T10:37:49.302Z,14.96
2022-08-05T10:38:49.287Z,14.90
2022-08-05T10:39:59.180Z,14.69
2022-08-05T10:40:50.702Z,14.69
2022-08-05T10:41:49.299Z,14.74
2022-08-05T10:42:49.240Z,14.96
2022-08-05T10:43:49.227Z,14.74
2022-08-05T10:44:49.214Z,14.90
2022-08-05T10:45:49.198Z,14.96
2022-08-05T10:46:51.101Z,14.90
2022-08-05T10:48:31.052Z,14.74
2022-08-05T10:48:56.551Z,14.74
2022-08-05T10:50:20.877Z,14.74
2022-08-05T10:50:50.175Z,14.80
2022-08-05T10:52:00.452Z,14.90
2022-08-05T10:52:50.148Z,14.74
2022-08-05T10:53:49.109Z,14.74
2022-08-05T10:54:56.122Z,14.96
2022-08-05T10:56:05.272Z,14.80
2022-08-05T10:56:53.161Z,14.90
2022-08-05T10:57:51.352Z,14.90
2022-08-05T10:58:50.490Z,14.80
2022-08-05T11:00:02.127Z,14.90
2022-08-05T11:00:55.420Z,14.80
2022-08-05T11:01:55.095Z,14.90
2022-08-05T11:02:50.408Z,15.28
2022-08-05T11:03:49.022Z,14.90
2022-08-05T11:04:48.979Z,14.69
2022-08-05T11:05:48.962Z,14.74
2022-08-05T11:06:48.952Z,14.69
2022-08-05T11:08:02.680Z,14.80
2022-08-05T11:08:49.957Z,14.80
2022-08-05T11:09:48.913Z,14.74
2022-08-05T11:10:50.414Z,14.74
2022-08-05T11:11:53.307Z,14.90
2022-08-05T11:12:50.533Z,14.74
2022-08-05T11:13:54.859Z,15.34
2022-08-05T11:15:11.779Z,14.69
2022-08-05T11:16:00.475Z,14.69
2022-08-05T11:16:57.082Z,14.63
2022-08-05T11:17:59.992Z,14.80
2022-08-05T11:18:51.759Z,14.74
2022-08-05T11:20:11.093Z,15.01
2022-08-05T11:20:49.815Z,14.96
2022-08-05T11:21:49.691Z,14.96
2022-08-05T11:22:49.933Z,14.74
2022-08-05T11:24:02.380Z,14.74
2022-08-05T11:24:50.851Z,14.74
2022-08-05T11:26:08.581Z,14.96
2022-08-05T11:26:49.952Z,14.96
2022-08-05T11:27:51.795Z,14.74
2022-08-05T11:28:49.720Z,14.74
2022-08-05T11:29:48.674Z,14.69
2022-08-05T11:30:48.663Z,14.74
2022-08-05T11:31:56.486Z,14.85
2022-08-05T11:32:49.675Z,14.74
2022-08-05T11:33:48.624Z,14.74
2022-08-05T11:34:54.192Z,14.74
2022-08-05T11:36:07.633Z,14.80
2022-08-05T11:36:52.973Z,14.69
2022-08-05T11:38:28.945Z,14.85
2022-08-05T11:38:51.752Z,14.80
2022-08-05T11:39:48.663Z,14.63
2022-08-05T11:40:48.541Z,14.80
2022-08-05T11:42:01.032Z,14.69
2022-08-05T11:42:49.543Z,14.74
2022-08-05T11:44:05.932Z,14.63
2022-08-05T11:44:53.875Z,14.74
2022-08-05T11:46:23.490Z,14.90
2022-08-05T11:47:09.488Z,14.90
2022-08-05T11:47:50.505Z,14.80
2022-08-05T11:48:48.446Z,14.69
2022-08-05T11:49:50.906Z,14.69
2022-08-05T11:50:48.427Z,14.90
2022-08-05T11:51:49.752Z,14.69
2022-08-05T11:52:50.275Z,14.63
2022-08-05T11:53:48.396Z,14.96
2022-08-05T11:54:54.686Z,14.80
2022-08-05T11:55:49.394Z,15.28
2022-08-05T11:56:50.309Z,14.74
2022-08-05T11:58:11.053Z,14.96
2022-08-05T11:58:52.815Z,14.74
2022-08-05T11:59:49.696Z,14.74
2022-08-05T12:00:52.802Z,14.96
2022-08-05T12:01:48.293Z,14.69
2022-08-05T12:02:48.313Z,14.96
2022-08-05T12:03:56.085Z,15.01
2022-08-05T12:04:59.238Z,15.01
2022-08-05T12:05:49.274Z,14.85
2022-08-05T12:06:48.941Z,14.96
2022-08-05T12:08:10.384Z,14.90
2022-08-05T12:08:51.303Z,14.96
2022-08-05T12:09:53.230Z,14.90
2022-08-05T12:10:48.820Z,14.96
2022-08-05T12:11:48.172Z,14.96
2022-08-05T12:12:58.436Z,14.90
2022-08-05T12:13:50.093Z,14.96
2022-08-05T12:14:48.134Z,15.34
2022-08-05T12:15:49.724Z,14.96
2022-08-05T12:16:48.116Z,14.96
2022-08-05T12:18:11.130Z,14.96
2022-08-05T12:18:53.287Z,14.90
2022-08-05T12:20:16.918Z,14.90
2022-08-05T12:20:49.094Z,15.01
2022-08-05T12:21:48.052Z,14.90
2022-08-05T12:22:48.042Z,14.96
2022-08-05T12:23:48.029Z,14.85
2022-08-05T12:24:49.747Z,14.90
2022-08-05T12:25:47.999Z,14.90
2022-08-05T12:26:47.987Z,14.96
2022-08-05T12:27:53.348Z,14.96
2022-08-05T12:28:47.963Z,14.90
2022-08-05T12:29:53.922Z,14.85
2022-08-05T12:30:48.978Z,15.01
2022-08-05T12:31:49.927Z,14.96
2022-08-05T12:32:49.658Z,14.96
2022-08-05T12:33:47.900Z,14.96
2022-08-05T12:34:47.890Z,14.96
2022-08-05T12:35:48.071Z,14.96
2022-08-05T12:36:47.868Z,14.85
2022-08-05T12:37:47.856Z,14.96
2022-08-05T12:38:47.840Z,14.96
2022-08-05T12:39:48.607Z,14.90
2022-08-05T12:40:47.814Z,14.85
2022-08-05T12:41:48.628Z,14.85
2022-08-05T12:42:47.792Z,14.85
2022-08-05T12:43:47.780Z,14.90
2022-08-05T12:44:47.912Z,14.96
2022-08-05T12:45:49.984Z,14.90
2022-08-05T12:46:47.744Z,14.90
2022-08-05T12:48:17.554Z,14.90
2022-08-05T12:48:48.753Z,14.85
2022-08-05T12:50:05.336Z,15.01
2022-08-05T12:50:48.725Z,15.01
2022-08-05T12:52:12.470Z,14.90
2022-08-05T12:52:48.702Z,14.90
2022-08-05T12:53:55.880Z,14.90